createdAt,value
2023-02-06T00:01:52.911Z,6.00
2023-02-06T00:04:22.564Z,6.10
2023-02-06T00:06:50.607Z,6.30
2023-02-06T00:09:19.988Z,6.30
2023-02-06T00:11:48.964Z,6.40
2023-02-06T00:14:17.016Z,6.60
2023-02-06T00:16:46.001Z,6.80
2023-02-06T00:19:14.021Z,7.00
2023-02-06T00:21:42.748Z,7.00
2023-02-06T00:24:11.322Z,6.70
2023-02-06T00:26:40.677Z,7.00
2023-02-06T00:29:09.140Z,7.20
2023-02-06T00:31:39.594Z,7.20
2023-02-06T00:34:09.309Z,7.20
2023-02-06T00:36:38.313Z,7.30
2023-02-06T00:39:08.755Z,7.50
2023-02-06T00:41:40.442Z,7.50
2023-02-06T00:44:08.435Z,7.70
2023-02-06T00:46:37.987Z,7.60
2023-02-06T00:49:07.180Z,7.70
2023-02-06T00:51:39.185Z,7.70
2023-02-06T00:54:07.581Z,7.80
2023-02-06T00:56:36.942Z,7.90
2023-02-06T00:59:07.188Z,8.10
2023-02-06T01:01:36.846Z,8.10
2023-02-06T01:04:05.049Z,8.30
2023-02-06T01:06:33.410Z,8.30
2023-02-06T01:09:02.475Z,8.30
2023-02-06T01:11:30.499Z,8.40
2023-02-06T01:14:02.980Z,8.50
2023-02-06T01:16:32.333Z,8.50
2023-02-06T01:19:03.720Z,8.30
2023-02-06T01:21:32.248Z,8.30
2023-02-06T01:24:00.322Z,8.30
2023-02-06T01:26:29.131Z,8.10
2023-02-06T01:28:58.528Z,8.20
2023-02-06T01:31:29.665Z,8.10
2023-02-06T01:34:09.787Z,8.10
2023-02-06T01:36:37.800Z,8.10
2023-02-06T01:39:06.884Z,8.30
2023-02-06T01:41:35.985Z,8.30
2023-02-06T01:44:11.589Z,8.20
2023-02-06T01:46:43.589Z,8.20
2023-02-06T01:49:16.836Z,8.30
2023-02-06T01:51:47.727Z,8.30
2023-02-06T01:54:17.667Z,8.40
2023-02-06T01:56:53.204Z,8.40
2023-02-06T01:59:22.943Z,8.30
2023-02-06T02:01:50.946Z,8.40
2023-02-06T02:04:24.800Z,8.30
2023-02-06T02:07:02.732Z,8.20
2023-02-06T02:09:33.671Z,8.30
2023-02-06T02:12:02.450Z,8.20
2023-02-06T02:14:31.759Z,8.00
2023-02-06T02:17:23.620Z,8.10
2023-02-06T02:20:15.163Z,8.10
2023-02-06T02:22:54.304Z,8.00
2023-02-06T02:25:58.736Z,7.90
2023-02-06T02:29:09.445Z,7.90
2023-02-06T02:32:11.450Z,7.90
2023-02-06T02:35:12.335Z,8.10
2023-02-06T02:37:53.456Z,7.90
2023-02-06T02:40:34.992Z,7.90
2023-02-06T02:43:10.044Z,7.90
2023-02-06T02:45:45.180Z,8.00
2023-02-06T02:48:17.813Z,8.20
2023-02-06T02:50:50.886Z,7.90
2023-02-06T02:53:18.906Z,7.80
2023-02-06T02:55:47.009Z,7.90
2023-02-06T02:58:19.120Z,7.90
2023-02-06T03:00:52.734Z,7.90
2023-02-06T03:03:23.298Z,8.10
2023-02-06T03:06:07.142Z,8.10
2023-02-06T03:08:43.729Z,8.10
2023-02-06T03:11:15.751Z,7.80
2023-02-06T03:13:49.913Z,7.90
2023-02-06T03:16:25.714Z,7.90
2023-02-06T03:19:00.525Z,7.80
2023-02-06T03:21:31.285Z,7.80
2023-02-06T03:24:02.158Z,7.80
2023-02-06T03:26:33.028Z,7.70
2023-02-06T03:29:06.672Z,7.90
2023-02-06T03:31:40.494Z,7.70
2023-02-06T03:34:12.782Z,7.90
2023-02-06T03:36:42.892Z,8.00
2023-02-06T03:39:11.348Z,8.00
2023-02-06T03:41:42.180Z,8.20
2023-02-06T03:44:13.766Z,8.00
2023-02-06T03:46:44.585Z,8.00
2023-02-06T03:49:16.194Z,8.00
2023-02-06T03:51:50.593Z,7.80
2023-02-06T03:54:22.651Z,7.90
2023-02-06T03:56:54.924Z,7.50
2023-02-06T03:59:23.241Z,7.80
2023-02-06T04:01:56.439Z,7.90
2023-02-06T04:04:29.096Z,8.10
2023-02-06T04:07:02.955Z,8.20
2023-02-06T04:09:33.738Z,8.10
2023-02-06T04:12:02.690Z,8.00
2023-02-06T04:14:31.151Z,8.20
2023-02-06T04:17:06.693Z,8.40
2023-02-06T04:19:36.220Z,8.30
2023-02-06T04:22:07.622Z,8.20
2023-02-06T04:24:37.186Z,8.20
2023-02-06T04:27:05.638Z,8.10
2023-02-06T04:29:34.849Z,8.00
2023-02-06T04:32:03.682Z,8.10
2023-02-06T04:34:32.063Z,8.10
2023-02-06T04:37:00.790Z,8.10
2023-02-06T04:39:31.690Z,8.00
2023-02-06T04:42:00.273Z,7.90
2023-02-06T04:44:28.786Z,7.90
2023-02-06T04:46:56.787Z,7.90
2023-02-06T04:49:27.109Z,7.90
2023-02-06T04:51:55.181Z,7.90
2023-02-06T04:54:23.747Z,8.00
2023-02-06T04:56:53.588Z,8.10
2023-02-06T04:59:23.036Z,8.10
2023-02-06T05:01:52.704Z,8.10
2023-02-06T05:04:22.691Z,7.90
2023-02-06T05:06:50.744Z,7.80
2023-02-06T05:09:19.227Z,8.00
2023-02-06T05:11:49.335Z,7.90
2023-02-06T05:14:19.168Z,8.00
2023-02-06T05:16:47.256Z,7.90
2023-02-06T05:19:15.272Z,7.90
2023-02-06T05:21:43.822Z,7.80
2023-02-06T05:24:12.808Z,7.70
2023-02-06T05:26:40.799Z,7.70
2023-02-06T05:29:09.025Z,7.70
2023-02-06T05:31:40.530Z,7.80
2023-02-06T05:34:10.918Z,8.00
2023-02-06T05:36:39.235Z,8.10
2023-02-06T05:39:07.774Z,8.20
2023-02-06T05:41:37.011Z,8.10
2023-02-06T05:44:06.538Z,8.10
2023-02-06T05:46:35.744Z,8.20
2023-02-06T05:49:05.893Z,8.20
2023-02-06T05:51:33.945Z,8.20
2023-02-06T05:54:02.515Z,8.30
2023-02-06T05:56:30.656Z,8.40
2023-02-06T05:58:59.622Z,8.30
2023-02-06T06:01:29.751Z,8.40
2023-02-06T06:03:58.314Z,8.30
2023-02-06T06:06:28.773Z,8.40
2023-02-06T06:08:58.732Z,8.30
2023-02-06T06:11:26.922Z,8.20
2023-02-06T06:13:54.905Z,8.20
2023-02-06T06:16:23.444Z,8.10
2023-02-06T06:18:51.695Z,8.30
2023-02-06T06:21:20.499Z,8.30
2023-02-06T06:23:50.028Z,8.30
2023-02-06T06:26:20.623Z,8.30
2023-02-06T06:28:48.869Z,8.40
2023-02-06T06:31:17.013Z,8.40
2023-02-06T06:33:45.099Z,8.30
2023-02-06T06:36:14.556Z,8.40
2023-02-06T06:38:42.821Z,8.40
2023-02-06T06:41:12.409Z,8.40
2023-02-06T06:43:41.221Z,8.50
2023-02-06T06:46:10.128Z,8.60
2023-02-06T06:48:40.738Z,8.60
2023-02-06T06:51:08.733Z,8.50
2023-02-06T06:53:39.827Z,8.50
2023-02-06T06:56:10.763Z,8.50
2023-02-06T06:58:41.289Z,8.60
2023-02-06T07:01:10.283Z,8.60
2023-02-06T07:03:38.646Z,8.50
2023-02-06T07:06:06.873Z,8.50
2023-02-06T07:08:35.915Z,8.40
2023-02-06T07:11:04.037Z,8.30
2023-02-06T07:13:35.880Z,8.20
2023-02-06T07:16:05.823Z,8.10
2023-02-06T07:18:34.089Z,8.00
2023-02-06T07:21:03.825Z,8.10
2023-02-06T07:23:31.852Z,8.30
2023-02-06T07:26:02.677Z,8.30
2023-02-06T07:28:34.019Z,8.40
2023-02-06T07:31:02.613Z,8.50
2023-02-06T07:33:32.119Z,8.50
2023-02-06T07:36:04.181Z,8.50
2023-02-06T07:38:32.846Z,8.60
2023-02-06T07:41:03.187Z,8.80
2023-02-06T07:43:35.663Z,8.70
2023-02-06T07:46:05.922Z,8.70
2023-02-06T07:48:35.378Z,8.70
2023-02-06T07:51:08.603Z,8.70
2023-02-06T07:53:37.687Z,8.60
2023-02-06T07:56:14.436Z,8.70
2023-02-06T07:58:43.140Z,8.80
2023-02-06T08:01:12.120Z,8.90
2023-02-06T08:03:42.043Z,8.80
2023-02-06T08:06:11.705Z,8.80
2023-02-06T08:08:41.805Z,8.80
2023-02-06T08:11:12.053Z,8.90
2023-02-06T08:13:40.382Z,8.90
2023-02-06T08:16:10.988Z,9.00
2023-02-06T08:18:41.481Z,9.00
2023-02-06T08:21:12.783Z,8.90
2023-02-06T08:23:42.041Z,8.80
2023-02-06T08:26:12.861Z,8.80
2023-02-06T08:28:42.367Z,8.80
2023-02-06T08:31:12.618Z,9.00
2023-02-06T08:33:42.984Z,8.90
2023-02-06T08:36:13.604Z,8.90
2023-02-06T08:38:43.008Z,8.90
2023-02-06T08:41:18.664Z,8.80
2023-02-06T08:43:47.709Z,8.80
2023-02-06T08:46:16.845Z,8.80
2023-02-06T08:48:47.865Z,9.00
2023-02-06T08:51:16.284Z,8.90
2023-02-06T08:53:44.783Z,8.90
2023-02-06T08:56:13.648Z,8.90
2023-02-06T08:58:41.928Z,9.00
2023-02-06T09:01:14.220Z,8.80
2023-02-06T09:03:43.111Z,8.80
2023-02-06T09:06:14.237Z,8.80
2023-02-06T09:08:45.834Z,8.80
2023-02-06T09:11:16.442Z,8.80
2023-02-06T09:13:49.375Z,8.80
2023-02-06T09:16:19.454Z,8.90
2023-02-06T09:18:48.385Z,9.00
2023-02-06T09:21:20.771Z,8.80
2023-02-06T09:23:51.878Z,8.90
2023-02-06T09:26:23.234Z,9.00
2023-02-06T09:28:54.751Z,9.00
2023-02-06T09:31:22.819Z,9.00
2023-02-06T09:33:51.471Z,8.90
2023-02-06T09:36:24.279Z,9.00
2023-02-06T09:38:57.826Z,8.90
2023-02-06T09:41:34.920Z,8.90
2023-02-06T09:44:10.104Z,9.10
2023-02-06T09:46:43.822Z,9.00
2023-02-06T09:49:22.515Z,9.10
2023-02-06T09:52:20.078Z,9.10
2023-02-06T09:54:55.610Z,9.20
2023-02-06T09:57:35.656Z,9.20
2023-02-06T10:00:12.454Z,9.30
2023-02-06T10:03:00.471Z,9.30
2023-02-06T10:05:39.097Z,9.00
2023-02-06T10:08:20.582Z,9.00
2023-02-06T10:10:54.505Z,8.90
2023-02-06T10:13:31.271Z,9.10
2023-02-06T10:16:05.243Z,9.10
2023-02-06T10:18:38.543Z,9.00
2023-02-06T10:21:13.931Z,9.10
2023-02-06T10:23:49.840Z,9.20
2023-02-06T10:26:22.075Z,9.10
2023-02-06T10:28:54.402Z,9.10
2023-02-06T10:31:50.459Z,9.00
2023-02-06T10:34:36.281Z,9.10
2023-02-06T10:37:19.805Z,9.20
2023-02-06T10:40:22.560Z,9.30
2023-02-06T10:42:58.962Z,9.40
2023-02-06T10:45:45.162Z,9.60
2023-02-06T10:48:31.459Z,9.70
2023-02-06T10:51:11.922Z,9.80
2023-02-06T10:53:46.879Z,9.90
2023-02-06T10:56:22.420Z,9.90
2023-02-06T10:58:56.884Z,10.00
2023-02-06T11:01:28.346Z,9.70
2023-02-06T11:04:05.216Z,9.80
2023-02-06T11:06:33.671Z,9.80
2023-02-06T11:09:02.839Z,9.90
2023-02-06T11:11:38.168Z,9.90
2023-02-06T11:14:12.725Z,9.70
2023-02-06T11:16:42.709Z,9.50
2023-02-06T11:19:18.381Z,9.50
2023-02-06T11:21:53.877Z,9.40
2023-02-06T11:24:24.534Z,9.40
2023-02-06T11:26:58.112Z,9.50
2023-02-06T11:29:29.302Z,9.60
2023-02-06T11:32:01.209Z,9.60
2023-02-06T11:34:32.723Z,9.70
2023-02-06T11:37:04.052Z,9.70
2023-02-06T11:39:34.345Z,9.80
2023-02-06T11:42:06.901Z,9.70
2023-02-06T11:44:40.803Z,9.60
2023-02-06T11:47:29.479Z,8.90
2023-02-06T11:49:58.750Z,8.80
2023-02-06T11:52:31.816Z,8.90
2023-02-06T11:55:03.274Z,8.60
2023-02-06T11:57:35.486Z,8.60
2023-02-06T12:00:22.374Z,8.60
2023-02-06T12:02:52.941Z,8.70
2023-02-06T12:05:28.520Z,8.80
2023-02-06T12:08:01.058Z,9.00
2023-02-06T12:10:34.344Z,9.20
2023-02-06T12:13:09.046Z,9.20
2023-02-06T12:15:47.618Z,8.40
2023-02-06T12:18:19.584Z,8.10
2023-02-06T12:20:53.073Z,7.90
2023-02-06T12:23:26.504Z,7.70
2023-02-06T12:25:59.035Z,7.70
2023-02-06T12:28:32.578Z,7.70
2023-02-06T12:31:05.384Z,7.70
2023-02-06T12:33:41.222Z,7.70
2023-02-06T12:36:17.219Z,7.80
2023-02-06T12:38:51.769Z,7.80
2023-02-06T12:41:46.648Z,8.00
2023-02-06T12:44:28.423Z,8.30
2023-02-06T12:47:02.862Z,8.40
2023-02-06T12:49:36.648Z,8.40
2023-02-06T12:52:13.584Z,8.40
2023-02-06T12:54:48.060Z,8.60
2023-02-06T12:57:20.817Z,8.90
2023-02-06T13:00:13.691Z,8.70
2023-02-06T13:03:21.124Z,8.30
2023-02-06T13:05:52.808Z,8.10
2023-02-06T13:08:27.611Z,8.00
2023-02-06T13:11:05.973Z,8.00
2023-02-06T13:13:37.528Z,8.10
2023-02-06T13:16:09.129Z,8.20
2023-02-06T13:18:53.601Z,8.40
2023-02-06T13:21:28.425Z,8.90
2023-02-06T13:24:16.368Z,9.30
2023-02-06T13:27:04.612Z,9.50
2023-02-06T13:29:33.785Z,9.70
2023-02-06T13:32:46.670Z,9.80
2023-02-06T13:35:29.116Z,10.20
2023-02-06T13:38:28.791Z,10.20
2023-02-06T13:41:26.205Z,10.00
2023-02-06T13:43:58.169Z,9.80
2023-02-06T13:46:48.868Z,9.60
2023-02-06T13:49:36.919Z,9.90
2023-02-06T13:52:14.439Z,9.90
2023-02-06T13:55:00.508Z,9.50
2023-02-06T13:57:56.044Z,9.20
2023-02-06T14:00:26.486Z,8.30
2023-02-06T14:02:56.617Z,8.50
2023-02-06T14:05:41.410Z,8.70
2023-02-06T14:08:19.826Z,8.80
2023-02-06T14:11:07.406Z,9.20
2023-02-06T14:13:58.039Z,9.20
2023-02-06T14:16:39.365Z,9.30
2023-02-06T14:19:18.887Z,9.40
2023-02-06T14:21:58.667Z,9.40
2023-02-06T14:25:05.265Z,9.30
2023-02-06T14:27:44.814Z,8.50
2023-02-06T14:30:25.623Z,8.10
2023-02-06T14:33:06.676Z,7.90
2023-02-06T14:35:48.713Z,7.90
2023-02-06T14:38:47.117Z,8.00
2023-02-06T14:41:17.147Z,8.10
2023-02-06T14:43:47.434Z,8.10
2023-02-06T14:46:18.960Z,8.40
2023-02-06T14:48:50.048Z,8.60
2023-02-06T14:51:28.205Z,8.70
2023-02-06T14:54:01.416Z,8.90
2023-02-06T14:56:33.000Z,8.90
2023-02-06T14:59:17.335Z,9.20
2023-02-06T15:01:47.407Z,9.20
2023-02-06T15:04:19.397Z,9.10
2023-02-06T15:06:56.596Z,9.30
2023-02-06T15:09:31.406Z,9.40
2023-02-06T15:12:02.343Z,9.70
2023-02-06T15:14:34.015Z,9.80
2023-02-06T15:17:03.427Z,9.80
2023-02-06T15:19:37.382Z,9.90
2023-02-06T15:22:11.070Z,9.80
2023-02-06T15:25:05.980Z,9.80
2023-02-06T15:27:35.998Z,9.80
2023-02-06T15:30:19.055Z,9.90
2023-02-06T15:32:51.661Z,9.90
2023-02-06T15:35:22.181Z,9.90
2023-02-06T15:37:51.684Z,9.90
2023-02-06T15:40:28.321Z,10.10
2023-02-06T15:42:57.175Z,10.10
2023-02-06T15:45:27.778Z,10.20
2023-02-06T15:47:56.925Z,10.10
2023-02-06T15:50:28.815Z,10.10
2023-02-06T15:53:00.907Z,10.10
2023-02-06T15:55:34.695Z,10.10
2023-02-06T15:58:05.565Z,10.20
2023-02-06T16:00:39.858Z,10.30
2023-02-06T16:03:16.966Z,10.20
2023-02-06T16:05:46.305Z,10.30
2023-02-06T16:08:19.983Z,10.20
2023-02-06T16:10:53.203Z,10.30
2023-02-06T16:13:24.025Z,10.10
2023-02-06T16:16:08.841Z,10.10
2023-02-06T16:18:38.327Z,10.10
2023-02-06T16:21:21.678Z,10.10
2023-02-06T16:23:52.638Z,10.00
2023-02-06T16:26:24.420Z,10.10
2023-02-06T16:29:02.157Z,10.00
2023-02-06T16:31:33.030Z,9.50
2023-02-06T16:34:03.080Z,9.50
2023-02-06T16:36:33.528Z,9.60
2023-02-06T16:39:04.471Z,9.60
2023-02-06T16:41:38.585Z,9.70
2023-02-06T16:44:13.209Z,9.60
2023-02-06T16:46:41.496Z,9.60
2023-02-06T16:49:15.928Z,9.60
2023-02-06T16:51:47.081Z,9.40
2023-02-06T16:54:21.374Z,9.40
2023-02-06T16:56:52.230Z,9.50
2023-02-06T16:59:22.332Z,9.50
2023-02-06T17:01:50.824Z,9.80
2023-02-06T17:04:20.355Z,9.70
2023-02-06T17:06:50.149Z,9.60
2023-02-06T17:09:19.596Z,9.50
2023-02-06T17:11:48.088Z,9.50
2023-02-06T17:14:17.545Z,9.80
2023-02-06T17:16:47.334Z,9.90
2023-02-06T17:19:15.969Z,9.90
2023-02-06T17:21:44.010Z,9.90
2023-02-06T17:24:13.070Z,10.00
2023-02-06T17:26:43.541Z,9.90
2023-02-06T17:29:17.666Z,9.90
2023-02-06T17:31:48.122Z,9.90
2023-02-06T17:34:16.220Z,9.90
2023-02-06T17:36:46.581Z,10.00
2023-02-06T17:39:15.517Z,10.00
2023-02-06T17:41:43.539Z,9.90
2023-02-06T17:44:12.850Z,9.90
2023-02-06T17:46:41.510Z,9.90
2023-02-06T17:49:11.281Z,10.10
2023-02-06T17:51:41.419Z,10.10
2023-02-06T17:54:12.093Z,10.10
2023-02-06T17:56:40.461Z,10.10
2023-02-06T17:59:08.565Z,10.10
2023-02-06T18:01:38.251Z,9.80
2023-02-06T18:04:06.974Z,10.00
2023-02-06T18:06:37.386Z,9.80
2023-02-06T18:09:05.934Z,9.90
2023-02-06T18:11:36.657Z,9.80
2023-02-06T18:14:05.721Z,9.80
2023-02-06T18:16:33.921Z,9.70
2023-02-06T18:19:02.788Z,9.60
2023-02-06T18:21:31.406Z,9.70
2023-02-06T18:24:01.950Z,9.60
2023-02-06T18:26:29.976Z,9.60
2023-02-06T18:28:58.471Z,9.70
2023-02-06T18:31:30.186Z,9.60
2023-02-06T18:34:00.119Z,9.80
2023-02-06T18:36:28.267Z,9.80
2023-02-06T18:38:56.760Z,9.80
2023-02-06T18:41:44.120Z,9.80
2023-02-06T18:44:15.913Z,9.70
2023-02-06T18:46:44.951Z,9.70
2023-02-06T18:49:15.529Z,9.60
2023-02-06T18:51:44.229Z,9.60
2023-02-06T18:54:12.467Z,9.80
2023-02-06T18:56:42.296Z,9.60
2023-02-06T18:59:10.338Z,9.70
2023-02-06T19:01:39.120Z,9.70
2023-02-06T19:04:07.537Z,9.90
2023-02-06T19:06:36.622Z,9.80
2023-02-06T19:09:07.016Z,9.70
2023-02-06T19:11:35.652Z,9.80
2023-02-06T19:14:07.428Z,9.60
2023-02-06T19:16:38.313Z,9.60
2023-02-06T19:19:10.151Z,9.40
2023-02-06T19:21:39.350Z,9.40
2023-02-06T19:24:08.729Z,9.30
2023-02-06T19:26:36.738Z,9.50
2023-02-06T19:29:13.133Z,9.60
2023-02-06T19:31:43.101Z,9.60
2023-02-06T19:34:11.354Z,9.50
2023-02-06T19:36:40.154Z,9.60
2023-02-06T19:39:10.474Z,9.70
2023-02-06T19:41:39.144Z,9.50
2023-02-06T19:44:10.969Z,9.60
2023-02-06T19:46:39.886Z,9.80
2023-02-06T19:49:09.916Z,9.60
2023-02-06T19:51:41.326Z,9.80
2023-02-06T19:54:09.696Z,9.60
2023-02-06T19:56:45.138Z,9.70
2023-02-06T19:59:19.835Z,9.80
2023-02-06T20:01:49.370Z,9.70
2023-02-06T20:04:19.282Z,9.70
2023-02-06T20:06:49.196Z,9.60
2023-02-06T20:09:19.083Z,9.50
2023-02-06T20:11:48.977Z,9.70
2023-02-06T20:14:21.484Z,9.70
2023-02-06T20:16:50.638Z,9.70
2023-02-06T20:19:22.171Z,9.70
2023-02-06T20:21:52.644Z,9.60
2023-02-06T20:24:23.518Z,9.70
2023-02-06T20:26:55.757Z,9.60
2023-02-06T20:29:28.951Z,9.60
2023-02-06T20:31:58.120Z,9.50
2023-02-06T20:34:28.667Z,9.60
2023-02-06T20:36:57.857Z,9.40
2023-02-06T20:39:27.564Z,9.40
2023-02-06T20:41:55.842Z,9.40
2023-02-06T20:44:26.373Z,9.60
2023-02-06T20:46:54.832Z,9.30
2023-02-06T20:49:24.885Z,9.30
2023-02-06T20:51:53.458Z,9.40
2023-02-06T20:54:23.388Z,9.20
2023-02-06T20:56:51.673Z,9.20
2023-02-06T20:59:21.451Z,9.20
2023-02-06T21:01:54.038Z,9.40
2023-02-06T21:04:22.721Z,9.40
2023-02-06T21:06:50.736Z,9.40
2023-02-06T21:09:20.054Z,9.30
2023-02-06T21:11:50.339Z,9.00
2023-02-06T21:14:21.903Z,9.20
2023-02-06T21:16:51.314Z,9.20
2023-02-06T21:19:22.321Z,9.10
2023-02-06T21:21:50.515Z,9.20
2023-02-06T21:24:19.706Z,9.10
2023-02-06T21:26:47.774Z,9.00
2023-02-06T21:29:17.059Z,9.00
2023-02-06T21:31:46.586Z,8.90
2023-02-06T21:34:19.584Z,9.00
2023-02-06T21:36:48.747Z,9.00
2023-02-06T21:39:19.115Z,8.90
2023-02-06T21:41:49.212Z,8.90
2023-02-06T21:44:17.977Z,8.90
2023-02-06T21:46:45.953Z,8.90
2023-02-06T21:49:15.987Z,8.70
2023-02-06T21:51:44.217Z,8.90
2023-02-06T21:54:12.673Z,8.80
2023-02-06T21:56:41.235Z,8.80
2023-02-06T21:59:10.906Z,8.70
2023-02-06T22:01:40.968Z,8.80
2023-02-06T22:04:11.525Z,8.60
2023-02-06T22:06:41.082Z,8.70
2023-02-06T22:09:15.128Z,8.60
2023-02-06T22:11:43.486Z,8.70
2023-02-06T22:14:15.221Z,8.50
2023-02-06T22:16:47.301Z,8.60
2023-02-06T22:19:16.758Z,8.70
2023-02-06T22:21:46.417Z,8.50
2023-02-06T22:24:15.001Z,8.60
2023-02-06T22:26:43.297Z,8.50
2023-02-06T22:29:16.393Z,8.50
2023-02-06T22:31:45.868Z,8.50
2023-02-06T22:34:16.907Z,8.50
2023-02-06T22:36:46.838Z,8.40
2023-02-06T22:39:16.166Z,8.30
2023-02-06T22:41:46.261Z,8.50
2023-02-06T22:44:16.400Z,8.30
2023-02-06T22:46:46.700Z,8.30
2023-02-06T22:49:15.530Z,8.30
2023-02-06T22:51:44.402Z,8.30
2023-02-06T22:54:14.294Z,8.40
2023-02-06T22:56:43.601Z,8.40
2023-02-06T22:59:14.455Z,8.40
2023-02-06T23:01:44.564Z,8.40
2023-02-06T23:04:15.367Z,8.40
2023-02-06T23:06:44.829Z,8.20
2023-02-06T23:09:17.349Z,8.10
2023-02-06T23:11:46.697Z,8.30
2023-02-06T23:14:18.256Z,8.20
2023-02-06T23:16:47.584Z,8.20
2023-02-06T23:19:16.417Z,8.20
2023-02-06T23:21:47.441Z,8.10
2023-02-06T23:24:18.222Z,8.10
2023-02-06T23:26:49.860Z,8.20
2023-02-06T23:29:22.547Z,8.30
2023-02-06T23:31:51.794Z,8.10
2023-02-06T23:34:23.932Z,8.10
2023-02-06T23:36:53.345Z,8.10
2023-02-06T23:39:23.191Z,8.20
2023-02-06T23:41:53.044Z,8.10
2023-02-06T23:44:22.251Z,8.00
2023-02-06T23:46:53.096Z,7.80
2023-02-06T23:49:21.141Z,7.70
2023-02-06T23:51:50.635Z,7.70
2023-02-06T23:54:20.265Z,7.60
2023-02-06T23:56:49.661Z,7.60
2023-02-06T23:59:19.269Z,7.50
